createdAt,value
2019-02-10T00:00:58.881Z,8.90
2019-02-10T00:03:26.045Z,8.90
2019-02-10T00:05:52.431Z,9.00
2019-02-10T00:08:18.593Z,8.90
2019-02-10T00:10:45.727Z,9.00
2019-02-10T00:13:21.143Z,9.00
2019-02-10T00:15:47.284Z,9.00
2019-02-10T00:18:13.428Z,9.00
2019-02-10T00:20:39.579Z,9.00
2019-02-10T00:23:05.984Z,9.00
2019-02-10T00:25:32.141Z,9.00
2019-02-10T00:27:58.290Z,9.10
2019-02-10T00:30:25.559Z,9.10
2019-02-10T00:32:51.712Z,9.10
2019-02-10T00:35:17.885Z,9.00
2019-02-10T00:37:44.120Z,9.10
2019-02-10T00:40:10.278Z,9.10
2019-02-10T00:42:36.419Z,9.10
2019-02-10T00:45:03.888Z,9.00
2019-02-10T00:47:30.040Z,9.00
2019-02-10T00:49:56.190Z,9.00
2019-02-10T00:52:22.344Z,9.00
2019-02-10T00:54:48.495Z,9.00
2019-02-10T00:57:14.647Z,9.00
2019-02-10T00:59:40.852Z,9.10
2019-02-10T01:02:07.167Z,9.00
2019-02-10T01:04:33.656Z,9.00
2019-02-10T01:06:59.812Z,9.00
2019-02-10T01:09:26.083Z,9.00
2019-02-10T01:11:52.603Z,9.00
2019-02-10T01:14:18.753Z,9.00
2019-02-10T01:16:44.910Z,9.00
2019-02-10T01:19:11.059Z,9.00
2019-02-10T01:21:37.221Z,9.00
2019-02-10T01:24:03.471Z,9.00
2019-02-10T01:26:29.610Z,9.00
2019-02-10T01:28:55.755Z,9.00
2019-02-10T01:31:21.911Z,9.10
2019-02-10T01:33:48.053Z,9.00
2019-02-10T01:36:14.215Z,9.00
2019-02-10T01:38:40.358Z,9.10
2019-02-10T01:41:06.515Z,9.00
2019-02-10T01:43:32.659Z,9.00
2019-02-10T01:45:58.804Z,9.00
2019-02-10T01:48:24.963Z,9.00
2019-02-10T01:50:51.120Z,8.90
2019-02-10T01:53:17.272Z,8.90
2019-02-10T01:55:43.430Z,8.90
2019-02-10T01:58:09.562Z,8.90
2019-02-10T02:00:36.243Z,8.90
2019-02-10T02:03:02.649Z,8.90
2019-02-10T02:05:28.982Z,8.80
2019-02-10T02:07:55.446Z,8.80
2019-02-10T02:10:21.598Z,8.80
2019-02-10T02:12:47.762Z,8.60
2019-02-10T02:15:14.420Z,8.50
2019-02-10T02:17:40.567Z,8.50
2019-02-10T02:20:08.324Z,8.40
2019-02-10T02:22:34.471Z,8.40
2019-02-10T02:25:00.631Z,8.30
2019-02-10T02:27:26.792Z,8.30
2019-02-10T02:29:52.955Z,8.30
2019-02-10T02:32:19.380Z,8.30
2019-02-10T02:34:45.534Z,8.30
2019-02-10T02:37:11.691Z,8.20
2019-02-10T02:39:37.931Z,8.30
2019-02-10T02:42:04.090Z,8.20
2019-02-10T02:44:30.239Z,8.30
2019-02-10T02:46:56.646Z,8.30
2019-02-10T02:49:22.791Z,8.30
2019-02-10T02:51:49.045Z,8.30
2019-02-10T02:54:15.192Z,8.20
2019-02-10T02:56:41.678Z,8.30
2019-02-10T02:59:07.831Z,8.20
2019-02-10T03:01:34.323Z,8.10
2019-02-10T03:04:01.916Z,8.10
2019-02-10T03:06:29.959Z,8.00
2019-02-10T03:08:56.103Z,8.00
2019-02-10T03:11:22.260Z,8.00
2019-02-10T03:13:48.411Z,7.90
2019-02-10T03:16:14.551Z,7.90
2019-02-10T03:18:40.708Z,7.90
2019-02-10T03:21:06.846Z,7.90
2019-02-10T03:23:34.001Z,7.80
2019-02-10T03:26:00.153Z,7.80
2019-02-10T03:28:26.306Z,7.70
2019-02-10T03:30:52.449Z,7.60
2019-02-10T03:33:18.662Z,7.60
2019-02-10T03:35:45.106Z,7.50
2019-02-10T03:38:11.345Z,7.50
2019-02-10T03:40:37.491Z,7.50
2019-02-10T03:43:03.895Z,7.50
2019-02-10T03:45:30.029Z,7.50
2019-02-10T03:47:56.191Z,7.40
2019-02-10T03:50:22.582Z,7.40
2019-02-10T03:52:48.779Z,7.40
2019-02-10T03:55:14.898Z,7.50
2019-02-10T03:57:41.065Z,7.50
2019-02-10T04:00:10.826Z,7.50
2019-02-10T04:02:37.039Z,7.50
2019-02-10T04:05:03.989Z,7.50
2019-02-10T04:07:35.891Z,7.50
2019-02-10T04:09:58.199Z,7.50
2019-02-10T04:12:24.675Z,7.50
2019-02-10T04:14:50.837Z,7.40
2019-02-10T04:17:16.991Z,7.50
2019-02-10T04:19:43.143Z,7.50
2019-02-10T04:22:09.290Z,7.40
2019-02-10T04:24:35.451Z,7.40
2019-02-10T04:27:01.590Z,7.40
2019-02-10T04:29:27.787Z,7.50
2019-02-10T04:31:54.149Z,7.40
2019-02-10T04:34:20.316Z,7.40
2019-02-10T04:36:46.479Z,7.40
2019-02-10T04:39:12.641Z,7.40
2019-02-10T04:41:38.792Z,7.30
2019-02-10T04:44:04.930Z,7.40
2019-02-10T04:46:31.074Z,7.40
2019-02-10T04:48:57.304Z,7.30
2019-02-10T04:51:23.518Z,7.30
2019-02-10T04:53:49.661Z,7.30
2019-02-10T04:56:16.019Z,7.20
2019-02-10T04:58:42.174Z,7.30
2019-02-10T05:01:08.336Z,7.20
2019-02-10T05:03:34.498Z,7.30
2019-02-10T05:06:00.655Z,7.30
2019-02-10T05:08:26.806Z,7.20
2019-02-10T05:10:52.959Z,7.20
2019-02-10T05:13:19.111Z,7.30
2019-02-10T05:15:45.262Z,7.20
2019-02-10T05:18:12.510Z,7.20
2019-02-10T05:20:38.983Z,7.20
2019-02-10T05:23:05.136Z,7.20
2019-02-10T05:25:31.293Z,7.20
2019-02-10T05:27:57.438Z,7.20
2019-02-10T05:30:23.603Z,7.20
2019-02-10T05:32:49.741Z,7.20
2019-02-10T05:35:15.912Z,7.20
2019-02-10T05:37:42.050Z,7.20
2019-02-10T05:40:08.318Z,7.20
2019-02-10T05:42:34.461Z,7.20
2019-02-10T05:45:00.612Z,7.30
2019-02-10T05:47:26.757Z,7.30
2019-02-10T05:49:52.917Z,7.30
2019-02-10T05:52:19.055Z,7.30
2019-02-10T05:54:45.215Z,7.30
2019-02-10T05:57:11.633Z,7.40
2019-02-10T05:59:37.805Z,7.40
2019-02-10T06:02:07.268Z,7.30
2019-02-10T06:04:39.326Z,7.40
2019-02-10T06:07:09.086Z,7.40
2019-02-10T06:09:35.227Z,7.40
2019-02-10T06:12:01.387Z,7.40
2019-02-10T06:14:27.540Z,7.40
2019-02-10T06:16:53.689Z,7.40
2019-02-10T06:19:19.830Z,7.40
2019-02-10T06:21:45.992Z,7.50
2019-02-10T06:24:12.495Z,7.50
2019-02-10T06:26:38.654Z,7.50
2019-02-10T06:29:05.151Z,7.50
2019-02-10T06:31:31.313Z,7.50
2019-02-10T06:33:57.492Z,7.50
2019-02-10T06:36:23.635Z,7.50
2019-02-10T06:38:49.779Z,7.60
2019-02-10T06:41:15.935Z,7.50
2019-02-10T06:43:42.081Z,7.50
2019-02-10T06:46:08.470Z,7.50
2019-02-10T06:48:34.610Z,7.60
2019-02-10T06:51:00.778Z,7.60
2019-02-10T06:53:27.160Z,7.60
2019-02-10T06:55:53.313Z,7.70
2019-02-10T06:58:19.462Z,7.70
2019-02-10T07:00:53.405Z,7.70
2019-02-10T07:03:30.321Z,7.80
2019-02-10T07:05:56.471Z,7.80
2019-02-10T07:08:30.162Z,7.90
2019-02-10T07:10:50.675Z,7.90
2019-02-10T07:13:32.094Z,7.90
2019-02-10T07:16:33.742Z,7.90
2019-02-10T07:19:37.855Z,8.00
2019-02-10T07:22:27.421Z,7.90
2019-02-10T07:25:09.526Z,8.00
2019-02-10T07:27:35.695Z,8.00
2019-02-10T07:30:05.636Z,8.10
2019-02-10T07:32:56.611Z,8.10
2019-02-10T07:35:55.762Z,8.10
2019-02-10T07:38:38.679Z,8.20
2019-02-10T07:41:28.037Z,8.20
2019-02-10T07:44:00.924Z,8.20
2019-02-10T07:46:53.492Z,8.40
2019-02-10T07:49:45.835Z,8.40
2019-02-10T07:52:27.640Z,8.50
2019-02-10T07:55:14.450Z,8.50
2019-02-10T07:58:13.632Z,8.60
2019-02-10T08:01:05.761Z,8.60
2019-02-10T08:03:47.847Z,8.70
2019-02-10T08:06:24.007Z,8.70
2019-02-10T08:09:06.029Z,8.80
2019-02-10T08:11:36.067Z,8.90
2019-02-10T08:14:14.791Z,8.90
2019-02-10T08:16:48.097Z,9.00
2019-02-10T08:19:33.464Z,9.30
2019-02-10T08:22:12.043Z,9.40
2019-02-10T08:24:53.446Z,9.50
2019-02-10T08:27:26.127Z,9.60
2019-02-10T08:30:25.406Z,9.60
2019-02-10T08:33:19.750Z,9.70
2019-02-10T08:36:25.197Z,9.70
2019-02-10T08:39:04.506Z,9.80
2019-02-10T08:41:53.883Z,9.90
2019-02-10T08:44:32.391Z,10.00
2019-02-10T08:47:08.250Z,9.90
2019-02-10T08:49:50.263Z,10.00
2019-02-10T08:52:25.994Z,10.00
2019-02-10T08:54:53.244Z,10.00
2019-02-10T08:57:19.398Z,10.10
2019-02-10T08:59:45.683Z,10.10
2019-02-10T09:02:11.933Z,10.10
2019-02-10T09:04:38.088Z,10.20
2019-02-10T09:07:04.259Z,10.20
2019-02-10T09:09:30.419Z,10.30
2019-02-10T09:11:56.587Z,10.30
2019-02-10T09:14:22.786Z,10.30
2019-02-10T09:16:48.946Z,10.30
2019-02-10T09:19:15.088Z,10.30
2019-02-10T09:21:41.234Z,10.40
2019-02-10T09:24:07.392Z,10.40
2019-02-10T09:26:33.818Z,10.50
2019-02-10T09:28:59.968Z,10.50
2019-02-10T09:31:26.179Z,10.50
2019-02-10T09:33:52.883Z,10.50
2019-02-10T09:36:20.353Z,10.50
2019-02-10T09:38:46.727Z,10.40
2019-02-10T09:41:12.889Z,10.40
2019-02-10T09:43:39.073Z,10.40
2019-02-10T09:46:05.296Z,10.30
2019-02-10T09:48:31.447Z,10.30
2019-02-10T09:50:57.586Z,10.30
2019-02-10T09:53:23.769Z,10.20
2019-02-10T09:55:49.935Z,10.20
2019-02-10T09:58:16.088Z,10.20
2019-02-10T10:00:42.250Z,10.20
2019-02-10T10:03:08.395Z,10.10
2019-02-10T10:05:34.527Z,10.10
2019-02-10T10:08:00.679Z,10.10
2019-02-10T10:10:26.823Z,10.10
2019-02-10T10:12:52.970Z,10.10
2019-02-10T10:15:19.111Z,10.00
2019-02-10T10:17:45.274Z,10.00
2019-02-10T10:20:13.918Z,10.10
2019-02-10T10:22:40.094Z,10.10
2019-02-10T10:25:07.537Z,10.10
2019-02-10T10:27:33.697Z,10.10
2019-02-10T10:29:59.851Z,10.10
2019-02-10T10:32:26.274Z,10.10
2019-02-10T10:34:52.687Z,10.00
2019-02-10T10:37:18.866Z,10.10
2019-02-10T10:39:45.019Z,10.10
2019-02-10T10:42:11.415Z,10.00
2019-02-10T10:44:37.586Z,10.00
2019-02-10T10:47:03.963Z,10.10
2019-02-10T10:49:30.135Z,10.10
2019-02-10T10:51:56.275Z,10.10
2019-02-10T10:54:22.432Z,10.10
2019-02-10T10:56:48.588Z,10.10
2019-02-10T10:59:14.786Z,10.10
2019-02-10T11:01:40.942Z,10.10
2019-02-10T11:04:07.208Z,10.20
2019-02-10T11:06:34.016Z,10.20
2019-02-10T11:09:00.313Z,10.20
2019-02-10T11:11:26.442Z,10.20
2019-02-10T11:13:53.600Z,10.20
2019-02-10T11:16:19.758Z,10.20
2019-02-10T11:18:45.922Z,10.20
2019-02-10T11:21:13.624Z,10.20
2019-02-10T11:23:40.722Z,10.20
2019-02-10T11:26:06.892Z,10.30
2019-02-10T11:28:33.272Z,10.30
2019-02-10T11:31:00.472Z,10.30
2019-02-10T11:33:26.856Z,10.30
2019-02-10T11:35:53.021Z,10.30
2019-02-10T11:38:19.165Z,10.30
2019-02-10T11:40:45.312Z,10.20
2019-02-10T11:43:11.694Z,10.10
2019-02-10T11:45:37.868Z,10.20
2019-02-10T11:48:04.051Z,10.10
2019-02-10T11:50:30.207Z,10.10
2019-02-10T11:52:56.367Z,10.10
2019-02-10T11:55:22.518Z,10.00
2019-02-10T11:57:48.677Z,10.00
2019-02-10T12:00:15.844Z,10.00
2019-02-10T12:02:41.982Z,9.90
2019-02-10T12:05:09.669Z,9.80
2019-02-10T12:07:35.807Z,9.80
2019-02-10T12:10:03.088Z,9.70
2019-02-10T12:12:29.469Z,9.70
2019-02-10T12:14:55.624Z,9.70
2019-02-10T12:17:21.771Z,9.70
2019-02-10T12:19:47.957Z,9.70
2019-02-10T12:22:14.100Z,9.70
2019-02-10T12:24:40.258Z,9.60
2019-02-10T12:27:06.415Z,9.60
2019-02-10T12:29:32.554Z,9.70
2019-02-10T12:31:58.719Z,9.70
2019-02-10T12:34:25.207Z,9.60
2019-02-10T12:36:51.366Z,9.60
2019-02-10T12:39:17.507Z,9.60
2019-02-10T12:41:43.658Z,9.60
2019-02-10T12:44:09.807Z,9.50
2019-02-10T12:46:36.179Z,9.40
2019-02-10T12:49:02.329Z,9.50
2019-02-10T12:51:28.501Z,9.30
2019-02-10T12:53:54.647Z,9.30
2019-02-10T12:56:20.807Z,9.30
2019-02-10T12:58:46.978Z,9.30
2019-02-10T13:01:13.137Z,9.30
2019-02-10T13:03:39.293Z,9.30
2019-02-10T13:06:05.451Z,9.40
2019-02-10T13:08:31.868Z,9.50
2019-02-10T13:10:58.029Z,9.50
2019-02-10T13:13:24.221Z,9.50
2019-02-10T13:15:50.404Z,9.40
2019-02-10T13:18:16.788Z,9.50
2019-02-10T13:20:42.947Z,9.50
2019-02-10T13:23:09.121Z,9.40
2019-02-10T13:25:35.271Z,9.50
2019-02-10T13:28:01.433Z,9.40
2019-02-10T13:30:27.896Z,9.30
2019-02-10T13:32:54.155Z,9.40
2019-02-10T13:35:20.300Z,9.40
2019-02-10T13:37:46.460Z,9.50
2019-02-10T13:40:16.685Z,9.50
2019-02-10T13:42:43.182Z,9.50
2019-02-10T13:45:10.026Z,9.50
2019-02-10T13:47:36.187Z,9.40
2019-02-10T13:50:05.424Z,9.50
2019-02-10T13:52:31.592Z,9.50
2019-02-10T13:54:57.731Z,9.60
2019-02-10T13:57:23.888Z,9.60
2019-02-10T13:59:50.053Z,9.60
2019-02-10T14:02:16.199Z,9.60
2019-02-10T14:04:42.566Z,9.60
2019-02-10T14:07:08.730Z,9.60
2019-02-10T14:09:35.124Z,9.50
2019-02-10T14:12:01.285Z,9.50
2019-02-10T14:14:27.427Z,9.40
2019-02-10T14:16:53.585Z,9.40
2019-02-10T14:19:19.770Z,9.40
2019-02-10T14:21:45.924Z,9.40
2019-02-10T14:24:12.078Z,9.30
2019-02-10T14:26:38.217Z,9.30
2019-02-10T14:29:04.977Z,9.30
2019-02-10T14:31:31.367Z,9.30
2019-02-10T14:33:57.511Z,9.30
2019-02-10T14:36:23.903Z,9.30
2019-02-10T14:38:50.058Z,9.20
2019-02-10T14:41:16.196Z,9.20
2019-02-10T14:43:42.597Z,9.10
2019-02-10T14:46:08.789Z,9.10
2019-02-10T14:48:35.001Z,9.00
2019-02-10T14:51:01.147Z,9.10
2019-02-10T14:53:27.575Z,9.10
2019-02-10T14:55:53.738Z,9.10
2019-02-10T14:58:20.120Z,9.10
2019-02-10T15:00:46.322Z,9.10
2019-02-10T15:03:12.526Z,9.10
2019-02-10T15:05:38.726Z,9.10
2019-02-10T15:08:04.884Z,9.10
2019-02-10T15:10:31.017Z,9.10
2019-02-10T15:12:57.441Z,9.10
2019-02-10T15:15:23.590Z,9.00
2019-02-10T15:17:49.751Z,8.90
2019-02-10T15:20:15.894Z,8.90
2019-02-10T15:22:42.044Z,8.90
2019-02-10T15:25:10.494Z,8.90
2019-02-10T15:27:36.644Z,8.80
2019-02-10T15:30:07.182Z,8.80
2019-02-10T15:32:33.430Z,8.80
2019-02-10T15:34:59.596Z,8.80
2019-02-10T15:37:25.767Z,8.70
2019-02-10T15:39:51.995Z,8.80
2019-02-10T15:42:18.130Z,8.70
2019-02-10T15:44:45.686Z,8.80
2019-02-10T15:47:11.942Z,8.80
2019-02-10T15:49:38.324Z,8.80
2019-02-10T15:52:04.471Z,8.80
2019-02-10T15:54:30.770Z,8.80
2019-02-10T15:56:56.895Z,8.80
2019-02-10T15:59:23.273Z,8.80
2019-02-10T16:01:49.437Z,8.80
2019-02-10T16:04:15.824Z,8.80
2019-02-10T16:06:41.970Z,8.70
2019-02-10T16:09:08.226Z,8.70
2019-02-10T16:11:34.876Z,8.70
2019-02-10T16:14:01.054Z,8.60
2019-02-10T16:16:27.193Z,8.50
2019-02-10T16:18:53.338Z,8.50
2019-02-10T16:21:19.494Z,8.30
2019-02-10T16:23:45.647Z,8.30
2019-02-10T16:26:11.793Z,8.20
2019-02-10T16:28:37.942Z,8.10
2019-02-10T16:31:04.094Z,7.90
2019-02-10T16:33:30.258Z,7.80
2019-02-10T16:35:56.384Z,7.70
2019-02-10T16:38:22.751Z,7.60
2019-02-10T16:40:48.951Z,7.50
2019-02-10T16:43:15.104Z,7.50
2019-02-10T16:45:41.310Z,7.40
2019-02-10T16:48:07.725Z,7.40
2019-02-10T16:50:33.870Z,7.40
2019-02-10T16:53:00.012Z,7.40
2019-02-10T16:55:26.166Z,7.40
2019-02-10T16:57:52.307Z,7.40
2019-02-10T17:00:18.462Z,7.50
2019-02-10T17:02:44.851Z,7.40
2019-02-10T17:05:11.547Z,7.40
2019-02-10T17:07:37.719Z,7.50
2019-02-10T17:10:07.178Z,7.50
2019-02-10T17:12:33.339Z,7.40
2019-02-10T17:15:00.739Z,7.40
2019-02-10T17:17:26.878Z,7.40
2019-02-10T17:19:53.242Z,7.40
2019-02-10T17:22:19.402Z,7.40
2019-02-10T17:24:45.576Z,7.40
2019-02-10T17:27:11.813Z,7.40
2019-02-10T17:29:38.200Z,7.30
2019-02-10T17:32:04.630Z,7.30
2019-02-10T17:34:30.788Z,7.30
2019-02-10T17:36:57.184Z,7.30
2019-02-10T17:39:23.329Z,7.30
2019-02-10T17:41:49.487Z,7.20
2019-02-10T17:44:15.644Z,7.10
2019-02-10T17:46:41.800Z,7.20
2019-02-10T17:49:07.942Z,7.00
2019-02-10T17:51:34.384Z,7.00
2019-02-10T17:54:00.791Z,6.90
2019-02-10T17:56:26.958Z,6.80
2019-02-10T17:58:53.136Z,6.70
2019-02-10T18:01:19.306Z,6.70
2019-02-10T18:03:45.468Z,6.60
2019-02-10T18:06:11.626Z,6.60
2019-02-10T18:08:37.782Z,6.50
2019-02-10T18:11:04.200Z,6.60
2019-02-10T18:13:30.689Z,6.60
2019-02-10T18:15:58.730Z,6.70
2019-02-10T18:18:32.385Z,6.60
2019-02-10T18:21:00.438Z,6.70
2019-02-10T18:23:37.826Z,6.60
2019-02-10T18:26:22.732Z,6.60
2019-02-10T18:29:05.941Z,6.60
2019-02-10T18:31:50.950Z,6.60
2019-02-10T18:34:24.830Z,6.50
2019-02-10T18:36:58.928Z,6.40
2019-02-10T18:39:36.542Z,6.40
2019-02-10T18:42:20.656Z,6.30
2019-02-10T18:44:59.466Z,6.20
2019-02-10T18:47:44.453Z,6.10
2019-02-10T18:50:15.620Z,5.90
2019-02-10T18:52:55.479Z,5.90
2019-02-10T18:55:23.519Z,5.70
2019-02-10T18:57:54.690Z,5.70
2019-02-10T19:00:35.672Z,5.70
2019-02-10T19:03:03.720Z,5.60
2019-02-10T19:05:34.313Z,5.70
2019-02-10T19:08:08.366Z,5.60
2019-02-10T19:10:55.423Z,5.60
2019-02-10T19:13:26.382Z,5.50
2019-02-10T19:16:11.288Z,5.60
2019-02-10T19:18:48.842Z,5.60
2019-02-10T19:21:34.103Z,5.60
2019-02-10T19:24:05.003Z,5.60
2019-02-10T19:26:51.046Z,5.60
2019-02-10T19:29:25.636Z,5.60
2019-02-10T19:32:06.290Z,5.60
2019-02-10T19:34:37.926Z,5.40
2019-02-10T19:37:22.626Z,5.40
2019-02-10T19:39:59.707Z,5.40
2019-02-10T19:42:44.282Z,5.40
2019-02-10T19:45:12.458Z,5.30
2019-02-10T19:47:44.492Z,5.30
2019-02-10T19:50:21.435Z,5.30
2019-02-10T19:52:49.776Z,5.20
2019-02-10T19:55:17.910Z,5.20
2019-02-10T19:57:49.058Z,5.10
2019-02-10T20:00:17.334Z,5.10
2019-02-10T20:02:47.886Z,5.10
2019-02-10T20:05:30.894Z,5.10
2019-02-10T20:08:15.634Z,5.00
2019-02-10T20:10:52.414Z,5.00
2019-02-10T20:13:20.520Z,5.00
2019-02-10T20:16:06.514Z,4.90
2019-02-10T20:18:34.563Z,4.90
2019-02-10T20:21:11.338Z,5.00
2019-02-10T20:23:55.613Z,4.90
2019-02-10T20:26:26.560Z,4.80
2019-02-10T20:28:54.612Z,4.80
2019-02-10T20:31:22.670Z,4.70
2019-02-10T20:33:59.627Z,4.70
2019-02-10T20:36:30.739Z,4.70
2019-02-10T20:39:10.426Z,4.70
2019-02-10T20:41:57.055Z,4.70
2019-02-10T20:44:37.172Z,4.70
2019-02-10T20:47:05.451Z,4.60
2019-02-10T20:49:49.678Z,4.60
2019-02-10T20:52:23.515Z,4.60
2019-02-10T20:54:54.082Z,4.50
2019-02-10T20:57:25.075Z,4.50
2019-02-10T21:00:02.347Z,4.40
2019-02-10T21:02:31.994Z,4.30
2019-02-10T21:05:02.795Z,4.20
2019-02-10T21:07:37.199Z,4.20
2019-02-10T21:10:07.846Z,4.10
2019-02-10T21:12:38.666Z,4.10
2019-02-10T21:15:26.786Z,4.00
2019-02-10T21:17:55.063Z,3.90
2019-02-10T21:20:23.150Z,3.90
2019-02-10T21:22:54.039Z,3.80
2019-02-10T21:25:37.041Z,3.70
2019-02-10T21:28:13.987Z,3.70
2019-02-10T21:30:58.263Z,3.70
2019-02-10T21:33:42.954Z,3.50
2019-02-10T21:36:19.697Z,3.50
2019-02-10T21:39:00.155Z,3.40
2019-02-10T21:41:30.846Z,3.40
2019-02-10T21:43:58.889Z,3.40
2019-02-10T21:46:27.181Z,3.40
2019-02-10T21:48:55.151Z,3.40
2019-02-10T21:51:21.537Z,3.40
2019-02-10T21:53:47.676Z,3.40
2019-02-10T21:56:13.846Z,3.50
2019-02-10T21:58:41.321Z,3.50
2019-02-10T22:01:07.562Z,3.60
2019-02-10T22:03:33.956Z,3.60
2019-02-10T22:06:00.096Z,3.50
2019-02-10T22:08:26.505Z,3.50
2019-02-10T22:10:52.650Z,3.50
2019-02-10T22:13:18.794Z,3.50
2019-02-10T22:15:45.939Z,3.40
2019-02-10T22:18:12.350Z,3.50
2019-02-10T22:20:38.502Z,3.40
2019-02-10T22:23:04.670Z,3.40
2019-02-10T22:25:30.832Z,3.50
2019-02-10T22:27:57.255Z,3.50
2019-02-10T22:30:23.404Z,3.50
2019-02-10T22:32:49.555Z,3.50
2019-02-10T22:35:16.930Z,3.60
2019-02-10T22:37:43.098Z,3.60
2019-02-10T22:40:10.757Z,3.70
2019-02-10T22:42:45.048Z,3.70
2019-02-10T22:45:10.326Z,3.80
2019-02-10T22:47:36.815Z,3.80
2019-02-10T22:50:05.986Z,3.90
2019-02-10T22:52:32.134Z,3.80
2019-02-10T22:54:59.394Z,3.90
2019-02-10T22:57:25.554Z,4.00
2019-02-10T22:59:51.710Z,4.00
2019-02-10T23:02:17.866Z,4.00
2019-02-10T23:04:44.014Z,4.10
2019-02-10T23:07:10.262Z,4.10
2019-02-10T23:09:36.426Z,4.10
2019-02-10T23:12:02.789Z,4.10
2019-02-10T23:14:28.934Z,4.20
2019-02-10T23:16:55.079Z,4.20
2019-02-10T23:19:21.274Z,4.20
2019-02-10T23:21:47.429Z,4.20
2019-02-10T23:24:13.577Z,4.20
2019-02-10T23:26:39.736Z,4.30
2019-02-10T23:29:05.889Z,4.20
2019-02-10T23:31:32.043Z,4.30
2019-02-10T23:33:59.470Z,4.30
2019-02-10T23:36:25.627Z,4.30
2019-02-10T23:38:51.763Z,4.30
2019-02-10T23:41:17.922Z,4.30
2019-02-10T23:43:44.384Z,4.30
2019-02-10T23:46:10.603Z,4.30
2019-02-10T23:48:36.786Z,4.30
2019-02-10T23:51:02.941Z,4.40
2019-02-10T23:53:29.111Z,4.40
2019-02-10T23:55:55.291Z,4.40
2019-02-10T23:58:21.743Z,4.40
